PWSweather.com
Personal Weather Stations
Station Observations
ANTHEMNP
Anthem North Parkside, Anthem, AZ 85086

Anthem North ParksideAnthem, AZ 85086

Lat: 33.876464, Lon: -112.13861199999997

Elevation: 1930

Station Type: Davis Vantage Vue with Pro 2 console

http://www.azjerry.com/ANPW/wxindex.php

High Low Average
Temperature 99.5°F37.5°C 70.4°F21.3°C 87.0°F30.6°C
Dew Point 66.0°F18.9°C 43.0°F6.1°C 53.8°F12.1°C
Winds 13.8 mph 22.2 kmh Calm Calm 2.0 mph S3.2 kmh S
Wind Gusts 26.0 mph41.8 kmh -- 6.0 mph9.7 kmh
Humidity 76% 22% 35%
Pressure 29.98 in1015.2 mb 29.84 in1010.5 mb -
Precipitation 0.22 in5.6 mm - -
Hour Temp Dew Point Humidity Winds Wind Gusts Pressure Precip Precip Rate Daily Precip Total
12:00 AM 86.4°F30.2°C 43.0°F6.1°C 22% 2.5 mph NE4.0 kmh NE 4.0 mph6.4 kmh 29.86 in1011.2 mb 0.00 in0.0 mm 0.00 in0.0 mm 0.00 in0.0 mm
12:10 AM 85.7°F29.8°C 44.0°F6.7°C 23% 1.7 mph NNE2.7 kmh NNE 3.0 mph4.8 kmh 29.86 in1011.2 mb 0.00 in0.0 mm 0.00 in0.0 mm 0.00 in0.0 mm
12:20 AM 85.2°F29.6°C 45.0°F7.2°C 24% 1.3 mph N2.1 kmh N 3.0 mph4.8 kmh 29.86 in1011.2 mb 0.00 in0.0 mm 0.00 in0.0 mm 0.00 in0.0 mm
12:30 AM 85.1°F29.5°C 44.0°F6.7°C 24% 1.9 mph N3.1 kmh N 4.0 mph6.4 kmh 29.87 in1011.5 mb 0.00 in0.0 mm 0.00 in0.0 mm 0.00 in0.0 mm
12:40 AM 85.4°F29.7°C 45.0°F7.2°C 24% 1.6 mph NNE2.6 kmh NNE 5.0 mph8.0 kmh 29.87 in1011.5 mb 0.00 in0.0 mm 0.00 in0.0 mm 0.00 in0.0 mm
12:50 AM 85.4°F29.7°C 45.0°F7.2°C 24% 0.8 mph NNE1.3 kmh NNE 5.0 mph8.0 kmh 29.88 in1011.9 mb 0.00 in0.0 mm 0.00 in0.0 mm 0.00 in0.0 mm
01:00 AM 86.1°F30.1°C 44.0°F6.7°C 23% 2.0 mph N3.2 kmh N 4.0 mph6.4 kmh 29.88 in1011.9 mb 0.00 in0.0 mm 0.00 in0.0 mm 0.00 in0.0 mm
01:10 AM 85.2°F29.6°C 45.0°F7.2°C 24% 1.2 mph N1.9 kmh N 3.0 mph4.8 kmh 29.88 in1011.9 mb 0.00 in0.0 mm 0.00 in0.0 mm 0.00 in0.0 mm
01:20 AM 84.7°F29.3°C 44.0°F6.7°C 24% 2.2 mph NNE3.5 kmh NNE 4.0 mph6.4 kmh 29.89 in1012.2 mb 0.00 in0.0 mm 0.00 in0.0 mm 0.00 in0.0 mm
01:30 AM 83.8°F28.8°C 44.0°F6.7°C 25% 1.3 mph N2.1 kmh N 5.0 mph8.0 kmh 29.89 in1012.2 mb 0.00 in0.0 mm 0.00 in0.0 mm 0.00 in0.0 mm
01:40 AM 84.2°F29.0°C 44.0°F6.7°C 24% 0.5 mph NW0.8 kmh NW 2.0 mph3.2 kmh 29.89 in1012.2 mb 0.00 in0.0 mm 0.00 in0.0 mm 0.00 in0.0 mm
01:50 AM 84.2°F29.0°C 44.0°F6.7°C 24% Calm Calm 1.0 mph1.6 kmh 29.89 in1012.2 mb 0.00 in0.0 mm 0.00 in0.0 mm 0.00 in0.0 mm
02:00 AM 84.4°F29.1°C 45.0°F7.2°C 25% 1.1 mph N1.8 kmh N 3.0 mph4.8 kmh 29.89 in1012.2 mb 0.00 in0.0 mm 0.00 in0.0 mm 0.00 in0.0 mm
02:10 AM 84.4°F29.1°C 45.0°F7.2°C 25% 0.2 mph N0.3 kmh N 2.0 mph3.2 kmh 29.90 in1012.5 mb 0.00 in0.0 mm 0.00 in0.0 mm 0.00 in0.0 mm
02:20 AM 83.8°F28.8°C 44.0°F6.7°C 25% Calm Calm -- 29.90 in1012.5 mb 0.00 in0.0 mm 0.00 in0.0 mm 0.00 in0.0 mm
02:30 AM 83.0°F28.3°C 45.0°F7.2°C 26% Calm Calm -- 29.90 in1012.5 mb 0.00 in0.0 mm 0.00 in0.0 mm 0.00 in0.0 mm
02:40 AM 82.4°F28.0°C 44.0°F6.7°C 26% Calm Calm -- 29.90 in1012.5 mb 0.00 in0.0 mm 0.00 in0.0 mm 0.00 in0.0 mm
02:50 AM 82.1°F27.8°C 45.0°F7.2°C 27% Calm Calm -- 29.89 in1012.2 mb 0.00 in0.0 mm 0.00 in0.0 mm 0.00 in0.0 mm
03:00 AM 82.5°F28.1°C 45.0°F7.2°C 27% Calm Calm 1.0 mph1.6 kmh 29.90 in1012.5 mb 0.00 in0.0 mm 0.00 in0.0 mm 0.00 in0.0 mm
03:10 AM 82.6°F28.1°C 45.0°F7.2°C 27% Calm Calm 1.0 mph1.6 kmh 29.90 in1012.5 mb 0.00 in0.0 mm 0.00 in0.0 mm 0.00 in0.0 mm
03:20 AM 82.6°F28.1°C 47.0°F8.3°C 29% Calm Calm 1.0 mph1.6 kmh 29.90 in1012.5 mb 0.00 in0.0 mm 0.00 in0.0 mm 0.00 in0.0 mm
03:30 AM 82.8°F28.2°C 48.0°F8.9°C 30% Calm Calm 1.0 mph1.6 kmh 29.90 in1012.5 mb 0.00 in0.0 mm 0.00 in0.0 mm 0.00 in0.0 mm
03:40 AM 82.4°F28.0°C 48.0°F8.9°C 30% Calm Calm -- 29.90 in1012.5 mb 0.00 in0.0 mm 0.00 in0.0 mm 0.00 in0.0 mm
03:50 AM 82.2°F27.9°C 49.0°F9.4°C 31% Calm Calm -- 29.91 in1012.9 mb 0.00 in0.0 mm 0.00 in0.0 mm 0.00 in0.0 mm
04:00 AM 82.4°F28.0°C 51.0°F10.6°C 33% Calm Calm 1.0 mph1.6 kmh 29.91 in1012.9 mb 0.00 in0.0 mm 0.00 in0.0 mm 0.00 in0.0 mm
04:10 AM 83.2°F28.4°C 51.0°F10.6°C 33% 0.2 mph SE0.3 kmh SE 3.0 mph4.8 kmh 29.91 in1012.9 mb 0.00 in0.0 mm 0.00 in0.0 mm 0.00 in0.0 mm
04:20 AM 83.5°F28.6°C 51.0°F10.6°C 33% Calm Calm 1.0 mph1.6 kmh 29.91 in1012.9 mb 0.00 in0.0 mm 0.00 in0.0 mm 0.00 in0.0 mm
04:30 AM 84.3°F29.1°C 52.0°F11.1°C 33% 0.3 mph ENE0.5 kmh ENE 3.0 mph4.8 kmh 29.92 in1013.2 mb 0.00 in0.0 mm 0.00 in0.0 mm 0.00 in0.0 mm
04:40 AM 85.0°F29.4°C 53.0°F11.7°C 33% 0.5 mph ENE0.8 kmh ENE 3.0 mph4.8 kmh 29.92 in1013.2 mb 0.00 in0.0 mm 0.00 in0.0 mm 0.00 in0.0 mm
04:50 AM 85.3°F29.6°C 53.0°F11.7°C 33% 0.5 mph SE0.8 kmh SE 3.0 mph4.8 kmh 29.92 in1013.2 mb 0.00 in0.0 mm 0.00 in0.0 mm 0.00 in0.0 mm
05:00 AM 85.2°F29.6°C 53.0°F11.7°C 33% 0.4 mph E0.6 kmh E 3.0 mph4.8 kmh 29.92 in1013.2 mb 0.00 in0.0 mm 0.00 in0.0 mm 0.00 in0.0 mm
05:10 AM 84.9°F29.4°C 53.0°F11.7°C 33% Calm Calm 1.0 mph1.6 kmh 29.92 in1013.2 mb 0.00 in0.0 mm 0.00 in0.0 mm 0.00 in0.0 mm
05:20 AM 84.8°F29.3°C 53.0°F11.7°C 34% 0.2 mph SSE0.3 kmh SSE 2.0 mph3.2 kmh 29.92 in1013.2 mb 0.00 in0.0 mm 0.00 in0.0 mm 0.00 in0.0 mm
05:30 AM 85.1°F29.5°C 53.0°F11.7°C 33% 0.3 mph SE0.5 kmh SE 3.0 mph4.8 kmh 29.93 in1013.5 mb 0.00 in0.0 mm 0.00 in0.0 mm 0.00 in0.0 mm
05:40 AM 85.1°F29.5°C 54.0°F12.2°C 34% 0.1 mph SW0.2 kmh SW 2.0 mph3.2 kmh 29.93 in1013.5 mb 0.00 in0.0 mm 0.00 in0.0 mm 0.00 in0.0 mm
05:50 AM 84.3°F29.1°C 54.0°F12.2°C 35% Calm Calm 1.0 mph1.6 kmh 29.94 in1013.9 mb 0.00 in0.0 mm 0.00 in0.0 mm 0.00 in0.0 mm
06:00 AM 83.3°F28.5°C 53.0°F11.7°C 35% Calm Calm 1.0 mph1.6 kmh 29.94 in1013.9 mb 0.00 in0.0 mm 0.00 in0.0 mm 0.00 in0.0 mm
06:10 AM 82.5°F28.1°C 51.0°F10.6°C 33% Calm Calm 1.0 mph1.6 kmh 29.94 in1013.9 mb 0.00 in0.0 mm 0.00 in0.0 mm 0.00 in0.0 mm
06:20 AM 81.9°F27.7°C 52.0°F11.1°C 35% 0.3 mph NNE0.5 kmh NNE 2.0 mph3.2 kmh 29.94 in1013.9 mb 0.00 in0.0 mm 0.00 in0.0 mm 0.00 in0.0 mm
06:30 AM 81.7°F27.6°C 50.0°F10.0°C 33% 1.2 mph NNE1.9 kmh NNE 4.0 mph6.4 kmh 29.95 in1014.2 mb 0.00 in0.0 mm 0.00 in0.0 mm 0.00 in0.0 mm
06:40 AM 81.1°F27.3°C 48.0°F8.9°C 31% 2.2 mph N3.5 kmh N 4.0 mph6.4 kmh 29.95 in1014.2 mb 0.00 in0.0 mm 0.00 in0.0 mm 0.00 in0.0 mm
06:50 AM 81.1°F27.3°C 45.0°F7.2°C 28% 2.3 mph N3.7 kmh N 5.0 mph8.0 kmh 29.95 in1014.2 mb 0.00 in0.0 mm 0.00 in0.0 mm 0.00 in0.0 mm
07:00 AM 81.7°F27.6°C 46.0°F7.8°C 28% 2.1 mph N3.4 kmh N 5.0 mph8.0 kmh 29.96 in1014.6 mb 0.00 in0.0 mm 0.00 in0.0 mm 0.00 in0.0 mm
07:10 AM 82.1°F27.8°C 46.0°F7.8°C 28% 2.2 mph N3.5 kmh N 4.0 mph6.4 kmh 29.96 in1014.6 mb 0.00 in0.0 mm 0.00 in0.0 mm 0.00 in0.0 mm
07:20 AM 83.1°F28.4°C 47.0°F8.3°C 28% 2.4 mph NNE3.9 kmh NNE 4.0 mph6.4 kmh 29.96 in1014.6 mb 0.00 in0.0 mm 0.00 in0.0 mm 0.00 in0.0 mm
07:30 AM 84.3°F29.1°C 48.0°F8.9°C 28% 1.9 mph N3.1 kmh N 4.0 mph6.4 kmh 29.96 in1014.6 mb 0.00 in0.0 mm 0.00 in0.0 mm 0.00 in0.0 mm
07:40 AM 85.4°F29.7°C 49.0°F9.4°C 28% Calm Calm 1.0 mph1.6 kmh 29.96 in1014.6 mb 0.00 in0.0 mm 0.00 in0.0 mm 0.00 in0.0 mm
07:50 AM 86.9°F30.5°C 49.0°F9.4°C 27% Calm Calm 1.0 mph1.6 kmh 29.97 in1014.9 mb 0.00 in0.0 mm 0.00 in0.0 mm 0.00 in0.0 mm
08:00 AM 89.2°F31.8°C 51.0°F10.6°C 27% 0.4 mph S0.6 kmh S 2.0 mph3.2 kmh 29.97 in1014.9 mb 0.00 in0.0 mm 0.00 in0.0 mm 0.00 in0.0 mm
08:10 AM 89.8°F32.1°C 50.0°F10.0°C 25% 1.2 mph SW1.9 kmh SW 3.0 mph4.8 kmh 29.98 in1015.2 mb 0.00 in0.0 mm 0.00 in0.0 mm 0.00 in0.0 mm
08:20 AM 91.9°F33.3°C 51.0°F10.6°C 25% 0.2 mph SW0.3 kmh SW 2.0 mph3.2 kmh 29.98 in1015.2 mb 0.00 in0.0 mm 0.00 in0.0 mm 0.00 in0.0 mm
08:30 AM 92.9°F33.8°C 52.0°F11.1°C 25% 0.6 mph SSW1.0 kmh SSW 3.0 mph4.8 kmh 29.98 in1015.2 mb 0.00 in0.0 mm 0.00 in0.0 mm 0.00 in0.0 mm
08:40 AM 92.3°F33.5°C 54.0°F12.2°C 27% 1.0 mph SE1.6 kmh SE 3.0 mph4.8 kmh 29.98 in1015.2 mb 0.00 in0.0 mm 0.00 in0.0 mm 0.00 in0.0 mm
08:50 AM 90.4°F32.4°C 53.0°F11.7°C 28% 1.5 mph SE2.4 kmh SE 4.0 mph6.4 kmh 29.98 in1015.2 mb 0.00 in0.0 mm 0.00 in0.0 mm 0.00 in0.0 mm
09:00 AM 90.3°F32.4°C 54.0°F12.2°C 29% 0.8 mph SE1.3 kmh SE 3.0 mph4.8 kmh 29.98 in1015.2 mb 0.00 in0.0 mm 0.00 in0.0 mm 0.00 in0.0 mm
09:10 AM 91.4°F33.0°C 55.0°F12.8°C 29% 0.7 mph SSE1.1 kmh SSE 4.0 mph6.4 kmh 29.98 in1015.2 mb 0.00 in0.0 mm 0.00 in0.0 mm 0.00 in0.0 mm
09:20 AM 90.8°F32.7°C 54.0°F12.2°C 29% 1.6 mph SE2.6 kmh SE 4.0 mph6.4 kmh 29.98 in1015.2 mb 0.00 in0.0 mm 0.00 in0.0 mm 0.00 in0.0 mm
09:30 AM 90.1°F32.3°C 55.0°F12.8°C 30% 1.5 mph WNW2.4 kmh WNW 3.0 mph4.8 kmh 29.98 in1015.2 mb 0.00 in0.0 mm 0.00 in0.0 mm 0.00 in0.0 mm
09:40 AM 90.6°F32.6°C 54.0°F12.2°C 29% 1.6 mph SSE2.6 kmh SSE 5.0 mph8.0 kmh 29.98 in1015.2 mb 0.00 in0.0 mm 0.00 in0.0 mm 0.00 in0.0 mm
09:50 AM 90.5°F32.5°C 54.0°F12.2°C 29% 2.0 mph SE3.2 kmh SE 6.0 mph9.7 kmh 29.98 in1015.2 mb 0.00 in0.0 mm 0.00 in0.0 mm 0.00 in0.0 mm
10:00 AM 91.4°F33.0°C 54.0°F12.2°C 28% 1.3 mph SSE2.1 kmh SSE 3.0 mph4.8 kmh 29.97 in1014.9 mb 0.00 in0.0 mm 0.00 in0.0 mm 0.00 in0.0 mm
10:10 AM 92.4°F33.6°C 55.0°F12.8°C 28% 1.0 mph SE1.6 kmh SE 6.0 mph9.7 kmh 29.97 in1014.9 mb 0.00 in0.0 mm 0.00 in0.0 mm 0.00 in0.0 mm
10:20 AM 92.2°F33.4°C 55.0°F12.8°C 28% 1.5 mph SW2.4 kmh SW 4.0 mph6.4 kmh 29.96 in1014.6 mb 0.00 in0.0 mm 0.00 in0.0 mm 0.00 in0.0 mm
10:30 AM 92.9°F33.8°C 54.0°F12.2°C 27% 0.8 mph ESE1.3 kmh ESE 4.0 mph6.4 kmh 29.96 in1014.6 mb 0.00 in0.0 mm 0.00 in0.0 mm 0.00 in0.0 mm
10:40 AM 94.2°F34.6°C 54.0°F12.2°C 26% 1.4 mph SE2.3 kmh SE 4.0 mph6.4 kmh 29.96 in1014.6 mb 0.00 in0.0 mm 0.00 in0.0 mm 0.00 in0.0 mm
10:50 AM 95.1°F35.1°C 54.0°F12.2°C 25% 0.9 mph SE1.4 kmh SE 4.0 mph6.4 kmh 29.96 in1014.6 mb 0.00 in0.0 mm 0.00 in0.0 mm 0.00 in0.0 mm
11:00 AM 96.0°F35.6°C 55.0°F12.8°C 25% 1.9 mph E3.1 kmh E 7.0 mph11.3 kmh 29.96 in1014.6 mb 0.00 in0.0 mm 0.00 in0.0 mm 0.00 in0.0 mm
11:10 AM 95.5°F35.3°C 53.0°F11.7°C 24% 2.7 mph SE4.3 kmh SE 7.0 mph11.3 kmh 29.95 in1014.2 mb 0.00 in0.0 mm 0.00 in0.0 mm 0.00 in0.0 mm
11:20 AM 95.3°F35.2°C 55.0°F12.8°C 26% 2.3 mph SE3.7 kmh SE 6.0 mph9.7 kmh 29.95 in1014.2 mb 0.00 in0.0 mm 0.00 in0.0 mm 0.00 in0.0 mm
11:30 AM 96.1°F35.6°C 54.0°F12.2°C 24% 1.9 mph N3.1 kmh N 4.0 mph6.4 kmh 29.95 in1014.2 mb 0.00 in0.0 mm 0.00 in0.0 mm 0.00 in0.0 mm
11:40 AM 96.7°F35.9°C 54.0°F12.2°C 24% 3.1 mph SSE5.0 kmh SSE 8.0 mph12.9 kmh 29.95 in1014.2 mb 0.00 in0.0 mm 0.00 in0.0 mm 0.00 in0.0 mm
11:50 AM 96.4°F35.8°C 54.0°F12.2°C 24% 2.6 mph SE4.2 kmh SE 7.0 mph11.3 kmh 29.94 in1013.9 mb 0.00 in0.0 mm 0.00 in0.0 mm 0.00 in0.0 mm
12:00 PM 96.4°F35.8°C 53.0°F11.7°C 23% 3.1 mph SE5.0 kmh SE 7.0 mph11.3 kmh 29.94 in1013.9 mb 0.00 in0.0 mm 0.00 in0.0 mm 0.00 in0.0 mm
12:10 PM 96.2°F35.7°C 54.0°F12.2°C 24% 2.6 mph SE4.2 kmh SE 7.0 mph11.3 kmh 29.94 in1013.9 mb 0.00 in0.0 mm 0.00 in0.0 mm 0.00 in0.0 mm
12:20 PM 95.8°F35.4°C 54.0°F12.2°C 24% 2.4 mph SE3.9 kmh SE 7.0 mph11.3 kmh 29.93 in1013.5 mb 0.00 in0.0 mm 0.00 in0.0 mm 0.00 in0.0 mm
12:30 PM 96.9°F36.1°C 55.0°F12.8°C 24% 2.6 mph SSW4.2 kmh SSW 8.0 mph12.9 kmh 29.92 in1013.2 mb 0.00 in0.0 mm 0.00 in0.0 mm 0.00 in0.0 mm
12:40 PM 97.2°F36.2°C 55.0°F12.8°C 24% 3.4 mph SSW5.5 kmh SSW 9.0 mph14.5 kmh 29.92 in1013.2 mb 0.00 in0.0 mm 0.00 in0.0 mm 0.00 in0.0 mm
12:50 PM 98.0°F36.7°C 54.0°F12.2°C 23% 3.1 mph SW5.0 kmh SW 9.0 mph14.5 kmh 29.91 in1012.9 mb 0.00 in0.0 mm 0.00 in0.0 mm 0.00 in0.0 mm
01:00 PM 97.1°F36.2°C 55.0°F12.8°C 24% 2.9 mph N4.7 kmh N 9.0 mph14.5 kmh 29.91 in1012.9 mb 0.00 in0.0 mm 0.00 in0.0 mm 0.00 in0.0 mm
01:10 PM 98.2°F36.8°C 55.0°F12.8°C 23% 3.1 mph SSE5.0 kmh SSE 9.0 mph14.5 kmh 29.90 in1012.5 mb 0.00 in0.0 mm 0.00 in0.0 mm 0.00 in0.0 mm
01:20 PM 97.9°F36.6°C 54.0°F12.2°C 23% 2.9 mph SW4.7 kmh SW 11.0 mph17.7 kmh 29.89 in1012.2 mb 0.00 in0.0 mm 0.00 in0.0 mm 0.00 in0.0 mm
01:30 PM 98.4°F36.9°C 53.0°F11.7°C 22% 3.9 mph SW6.3 kmh SW 11.0 mph17.7 kmh 29.89 in1012.2 mb 0.00 in0.0 mm 0.00 in0.0 mm 0.00 in0.0 mm
01:40 PM 97.6°F36.4°C 53.0°F11.7°C 22% 4.2 mph S6.8 kmh S 9.0 mph14.5 kmh 29.88 in1011.9 mb 0.00 in0.0 mm 0.00 in0.0 mm 0.00 in0.0 mm
01:50 PM 98.4°F36.9°C 53.0°F11.7°C 22% 2.6 mph SSW4.2 kmh SSW 7.0 mph11.3 kmh 29.88 in1011.9 mb 0.00 in0.0 mm 0.00 in0.0 mm 0.00 in0.0 mm
02:00 PM 98.9°F37.2°C 54.0°F12.2°C 22% 3.4 mph SW5.5 kmh SW 8.0 mph12.9 kmh 29.87 in1011.5 mb 0.00 in0.0 mm 0.00 in0.0 mm 0.00 in0.0 mm
02:10 PM 99.2°F37.3°C 54.0°F12.2°C 22% 3.6 mph SW5.8 kmh SW 9.0 mph14.5 kmh 29.87 in1011.5 mb 0.00 in0.0 mm 0.00 in0.0 mm 0.00 in0.0 mm
02:20 PM 98.4°F36.9°C 53.0°F11.7°C 22% 3.7 mph NW6.0 kmh NW 10.0 mph16.1 kmh 29.86 in1011.2 mb 0.00 in0.0 mm 0.00 in0.0 mm 0.00 in0.0 mm
02:30 PM 98.2°F36.8°C 53.0°F11.7°C 22% 3.2 mph SE5.1 kmh SE 10.0 mph16.1 kmh 29.86 in1011.2 mb 0.00 in0.0 mm 0.00 in0.0 mm 0.00 in0.0 mm
02:40 PM 97.9°F36.6°C 54.0°F12.2°C 23% 3.2 mph WSW5.1 kmh WSW 7.0 mph11.3 kmh 29.85 in1010.8 mb 0.00 in0.0 mm 0.00 in0.0 mm 0.00 in0.0 mm
02:50 PM 98.3°F36.8°C 55.0°F12.8°C 23% 2.3 mph S3.7 kmh S 6.0 mph9.7 kmh 29.85 in1010.8 mb 0.00 in0.0 mm 0.00 in0.0 mm 0.00 in0.0 mm
03:00 PM 98.4°F36.9°C 55.0°F12.8°C 23% 3.9 mph SW6.3 kmh SW 9.0 mph14.5 kmh 29.85 in1010.8 mb 0.00 in0.0 mm 0.00 in0.0 mm 0.00 in0.0 mm
03:10 PM 99.1°F37.3°C 54.0°F12.2°C 22% 3.5 mph SW5.6 kmh SW 8.0 mph12.9 kmh 29.85 in1010.8 mb 0.00 in0.0 mm 0.00 in0.0 mm 0.00 in0.0 mm
03:20 PM 99.5°F37.5°C 54.0°F12.2°C 22% 3.5 mph SE5.6 kmh SE 7.0 mph11.3 kmh 29.84 in1010.5 mb 0.00 in0.0 mm 0.00 in0.0 mm 0.00 in0.0 mm
03:30 PM 99.5°F37.5°C 54.0°F12.2°C 22% 3.7 mph SSW6.0 kmh SSW 8.0 mph12.9 kmh 29.84 in1010.5 mb 0.00 in0.0 mm 0.00 in0.0 mm 0.00 in0.0 mm
03:40 PM 99.5°F37.5°C 54.0°F12.2°C 22% 3.3 mph SE5.3 kmh SE 7.0 mph11.3 kmh 29.84 in1010.5 mb 0.00 in0.0 mm 0.00 in0.0 mm 0.00 in0.0 mm
03:50 PM 99.5°F37.5°C 54.0°F12.2°C 22% 4.4 mph SSE7.1 kmh SSE 11.0 mph17.7 kmh 29.84 in1010.5 mb 0.00 in0.0 mm 0.00 in0.0 mm 0.00 in0.0 mm
04:00 PM 99.4°F37.4°C 54.0°F12.2°C 22% 4.6 mph SE7.4 kmh SE 11.0 mph17.7 kmh 29.84 in1010.5 mb 0.00 in0.0 mm 0.00 in0.0 mm 0.00 in0.0 mm
04:10 PM 98.9°F37.2°C 54.0°F12.2°C 22% 5.4 mph WSW8.7 kmh WSW 12.0 mph19.3 kmh 29.84 in1010.5 mb 0.00 in0.0 mm 0.00 in0.0 mm 0.00 in0.0 mm
04:20 PM 98.6°F37.0°C 54.0°F12.2°C 22% 4.4 mph SSW7.1 kmh SSW 11.0 mph17.7 kmh 29.84 in1010.5 mb 0.00 in0.0 mm 0.00 in0.0 mm 0.00 in0.0 mm
04:30 PM 98.5°F36.9°C 54.0°F12.2°C 22% 3.6 mph SE5.8 kmh SE 11.0 mph17.7 kmh 29.85 in1010.8 mb 0.00 in0.0 mm 0.00 in0.0 mm 0.00 in0.0 mm
04:40 PM 98.0°F36.7°C 54.0°F12.2°C 23% 3.5 mph S5.6 kmh S 9.0 mph14.5 kmh 29.85 in1010.8 mb 0.00 in0.0 mm 0.00 in0.0 mm 0.00 in0.0 mm
04:50 PM 97.8°F36.6°C 54.0°F12.2°C 23% 3.4 mph SE5.5 kmh SE 8.0 mph12.9 kmh 29.85 in1010.8 mb 0.00 in0.0 mm 0.00 in0.0 mm 0.00 in0.0 mm
05:00 PM 97.1°F36.2°C 54.0°F12.2°C 23% 3.3 mph SW5.3 kmh SW 10.0 mph16.1 kmh 29.86 in1011.2 mb 0.00 in0.0 mm 0.00 in0.0 mm 0.00 in0.0 mm
05:10 PM 97.1°F36.2°C 54.0°F12.2°C 23% 2.8 mph SSE4.5 kmh SSE 7.0 mph11.3 kmh 29.87 in1011.5 mb 0.00 in0.0 mm 0.00 in0.0 mm 0.00 in0.0 mm
05:20 PM 92.8°F33.8°C 58.0°F14.4°C 31% 6.5 mph SW10.5 kmh SW 19.0 mph30.6 kmh 29.89 in1012.2 mb 0.00 in0.0 mm 0.00 in0.0 mm 0.00 in0.0 mm
05:30 PM 89.1°F31.7°C 60.0°F15.6°C 38% 7.2 mph SSE11.6 kmh SSE 17.0 mph27.4 kmh 29.89 in1012.2 mb 0.00 in0.0 mm 0.00 in0.0 mm 0.00 in0.0 mm
05:40 PM 85.2°F29.6°C 66.0°F18.9°C 52% 4.5 mph S7.2 kmh S 14.0 mph22.5 kmh 29.90 in1012.5 mb 0.35 in8.9 mm 2.10 in53.3 mm 0.03 in0.8 mm
05:50 PM 82.8°F28.2°C 63.0°F17.2°C 52% 3.0 mph ESE4.8 kmh ESE 8.0 mph12.9 kmh 29.91 in1012.9 mb 0.09 in2.3 mm 0.00 in0.0 mm 0.05 in1.3 mm
06:00 PM 82.6°F28.1°C 63.0°F17.2°C 51% 2.8 mph NNE4.5 kmh NNE 8.0 mph12.9 kmh 29.91 in1012.9 mb 0.05 in1.3 mm 0.00 in0.0 mm 0.05 in1.3 mm
06:10 PM 84.0°F28.9°C 58.0°F14.4°C 42% 3.3 mph NNE5.3 kmh NNE 11.0 mph17.7 kmh 29.92 in1013.2 mb 0.00 in0.0 mm 0.00 in0.0 mm 0.05 in1.3 mm
06:20 PM 85.3°F29.6°C 58.0°F14.4°C 39% 3.0 mph NNE4.8 kmh NNE 10.0 mph16.1 kmh 29.92 in1013.2 mb 0.00 in0.0 mm 0.00 in0.0 mm 0.05 in1.3 mm
06:30 PM 86.8°F30.4°C 51.0°F10.6°C 29% 7.3 mph N11.7 kmh N 19.0 mph30.6 kmh 29.93 in1013.5 mb 0.00 in0.0 mm 0.00 in0.0 mm 0.05 in1.3 mm
06:40 PM 81.3°F27.4°C 55.0°F12.8°C 41% 13.8 mph NNW22.2 kmh NNW 26.0 mph41.8 kmh 29.93 in1013.5 mb 0.00 in0.0 mm 0.00 in0.0 mm 0.05 in1.3 mm
06:50 PM 71.8°F22.1°C 61.0°F16.1°C 69% 8.0 mph NE12.9 kmh NE 21.0 mph33.8 kmh 29.96 in1014.6 mb 0.30 in7.6 mm 1.80 in45.7 mm 0.13 in3.3 mm
07:00 PM 70.4°F21.3°C 63.0°F17.2°C 76% 2.3 mph SSE3.7 kmh SSE 7.0 mph11.3 kmh 29.95 in1014.2 mb 0.44 in11.2 mm 0.17 in4.3 mm 0.20 in5.1 mm
07:10 PM 71.9°F22.2°C 61.0°F16.1°C 69% 5.8 mph SSE9.3 kmh SSE 17.0 mph27.4 kmh 29.92 in1013.2 mb 0.09 in2.3 mm 0.00 in0.0 mm 0.22 in5.6 mm
07:20 PM 72.2°F22.3°C 62.0°F16.7°C 70% 2.2 mph WSW3.5 kmh WSW 8.0 mph12.9 kmh 29.93 in1013.5 mb 0.04 in1.0 mm 0.00 in0.0 mm 0.22 in5.6 mm
07:30 PM 73.5°F23.1°C 60.0°F15.6°C 62% 5.5 mph NNE8.9 kmh NNE 12.0 mph19.3 kmh 29.97 in1014.9 mb 0.00 in0.0 mm 0.00 in0.0 mm 0.22 in5.6 mm
07:40 PM 74.6°F23.7°C 61.0°F16.1°C 63% 3.1 mph NE5.0 kmh NE 9.0 mph14.5 kmh 29.96 in1014.6 mb 0.00 in0.0 mm 0.00 in0.0 mm 0.22 in5.6 mm
07:50 PM 75.6°F24.2°C 61.0°F16.1°C 60% 2.8 mph NNE4.5 kmh NNE 8.0 mph12.9 kmh 29.96 in1014.6 mb 0.00 in0.0 mm 0.00 in0.0 mm 0.22 in5.6 mm
08:00 PM 76.8°F24.9°C 61.0°F16.1°C 58% 3.0 mph N4.8 kmh N 8.0 mph12.9 kmh 29.95 in1014.2 mb 0.00 in0.0 mm 0.00 in0.0 mm 0.22 in5.6 mm
08:10 PM 75.8°F24.3°C 63.0°F17.2°C 65% 3.2 mph NE5.1 kmh NE 8.0 mph12.9 kmh 29.94 in1013.9 mb 0.00 in0.0 mm 0.00 in0.0 mm 0.22 in5.6 mm
08:20 PM 75.4°F24.1°C 63.0°F17.2°C 66% 4.3 mph NE6.9 kmh NE 9.0 mph14.5 kmh 29.94 in1013.9 mb 0.00 in0.0 mm 0.00 in0.0 mm 0.22 in5.6 mm
08:30 PM 75.7°F24.3°C 63.0°F17.2°C 64% 3.2 mph N5.1 kmh N 8.0 mph12.9 kmh 29.95 in1014.2 mb 0.00 in0.0 mm 0.00 in0.0 mm 0.22 in5.6 mm
08:40 PM 77.1°F25.1°C 63.0°F17.2°C 61% 4.0 mph N6.4 kmh N 8.0 mph12.9 kmh 29.94 in1013.9 mb 0.00 in0.0 mm 0.00 in0.0 mm 0.22 in5.6 mm
08:50 PM 77.2°F25.1°C 62.0°F16.7°C 60% 3.6 mph NNE5.8 kmh NNE 9.0 mph14.5 kmh 29.94 in1013.9 mb 0.00 in0.0 mm 0.00 in0.0 mm 0.22 in5.6 mm
09:00 PM 77.5°F25.3°C 59.0°F15.0°C 53% 0.6 mph SSE1.0 kmh SSE 3.0 mph4.8 kmh 29.94 in1013.9 mb 0.00 in0.0 mm 0.00 in0.0 mm 0.22 in5.6 mm
09:10 PM 78.8°F26.0°C 62.0°F16.7°C 56% 0.9 mph SW1.4 kmh SW 3.0 mph4.8 kmh 29.94 in1013.9 mb 0.00 in0.0 mm 0.00 in0.0 mm 0.22 in5.6 mm
09:20 PM 78.1°F25.6°C 62.0°F16.7°C 58% 0.4 mph W0.6 kmh W 2.0 mph3.2 kmh 29.95 in1014.2 mb 0.00 in0.0 mm 0.00 in0.0 mm 0.22 in5.6 mm
09:30 PM 77.9°F25.5°C 63.0°F17.2°C 60% 0.8 mph NNE1.3 kmh NNE 6.0 mph9.7 kmh 29.96 in1014.6 mb 0.00 in0.0 mm 0.00 in0.0 mm 0.22 in5.6 mm
09:40 PM 77.4°F25.2°C 63.0°F17.2°C 61% 4.8 mph N7.7 kmh N 11.0 mph17.7 kmh 29.97 in1014.9 mb 0.00 in0.0 mm 0.00 in0.0 mm 0.22 in5.6 mm
09:50 PM 77.5°F25.3°C 61.0°F16.1°C 58% 2.5 mph N4.0 kmh N 5.0 mph8.0 kmh 29.96 in1014.6 mb 0.00 in0.0 mm 0.00 in0.0 mm 0.22 in5.6 mm
10:00 PM 77.9°F25.5°C 61.0°F16.1°C 56% 1.9 mph NE3.1 kmh NE 6.0 mph9.7 kmh 29.96 in1014.6 mb 0.00 in0.0 mm 0.00 in0.0 mm 0.22 in5.6 mm
10:10 PM 77.8°F25.4°C 62.0°F16.7°C 58% 1.0 mph N1.6 kmh N 3.0 mph4.8 kmh 29.96 in1014.6 mb 0.00 in0.0 mm 0.00 in0.0 mm 0.22 in5.6 mm
10:20 PM 77.9°F25.5°C 61.0°F16.1°C 57% 2.3 mph NE3.7 kmh NE 6.0 mph9.7 kmh 29.96 in1014.6 mb 0.00 in0.0 mm 0.00 in0.0 mm 0.22 in5.6 mm
10:30 PM 77.8°F25.4°C 61.0°F16.1°C 56% 0.6 mph N1.0 kmh N 2.0 mph3.2 kmh 29.96 in1014.6 mb 0.00 in0.0 mm 0.00 in0.0 mm 0.22 in5.6 mm
10:40 PM 77.5°F25.3°C 61.0°F16.1°C 58% 1.1 mph N1.8 kmh N 2.0 mph3.2 kmh 29.96 in1014.6 mb 0.00 in0.0 mm 0.00 in0.0 mm 0.22 in5.6 mm
10:50 PM 77.7°F25.4°C 61.0°F16.1°C 57% 2.1 mph N3.4 kmh N 4.0 mph6.4 kmh 29.96 in1014.6 mb 0.00 in0.0 mm 0.00 in0.0 mm 0.22 in5.6 mm
11:00 PM 77.8°F25.4°C 61.0°F16.1°C 57% 1.4 mph NE2.3 kmh NE 4.0 mph6.4 kmh 29.95 in1014.2 mb 0.00 in0.0 mm 0.00 in0.0 mm 0.22 in5.6 mm
11:10 PM 77.6°F25.3°C 62.0°F16.7°C 58% Calm Calm 1.0 mph1.6 kmh 29.94 in1013.9 mb 0.00 in0.0 mm 0.00 in0.0 mm 0.22 in5.6 mm
11:20 PM 77.6°F25.3°C 61.0°F16.1°C 56% 0.2 mph NE0.3 kmh NE 2.0 mph3.2 kmh 29.94 in1013.9 mb 0.00 in0.0 mm 0.00 in0.0 mm 0.22 in5.6 mm
11:30 PM 77.8°F25.4°C 61.0°F16.1°C 56% Calm Calm 1.0 mph1.6 kmh 29.94 in1013.9 mb 0.00 in0.0 mm 0.00 in0.0 mm 0.22 in5.6 mm
11:40 PM 77.5°F25.3°C 61.0°F16.1°C 57% Calm Calm 1.0 mph1.6 kmh 29.94 in1013.9 mb 0.00 in0.0 mm 0.00 in0.0 mm 0.22 in5.6 mm
11:50 PM 77.1°F25.1°C 62.0°F16.7°C 60% 0.3 mph N0.5 kmh N 2.0 mph3.2 kmh 29.93 in1013.5 mb 0.00 in0.0 mm 0.00 in0.0 mm 0.22 in5.6 mm